Airfield :
LOGIN :

Register | Disclaimer

   EN    FR    IT 

 










Legend :    VFR   Marginal VFR   IFR   Intensive IFR   Very Intensive IFR
Visi :
Ceiling :
>= 8 km
>= 3000ft
5 to 8 km
1000 to 3000 ft
1500m to 5 km
500 to 1000 ft
800 to 1500m
200 to 500 ft
< 800m
< 200 ft
Symbols :   Thunderstorms  Fog  Heavy snow  Heavy precipitations  Wind > 20 kt
SIGMETs :     Misc.  Thunderstorms  Icing  Turbulence  Mountain Waves  Volcanic Ashes






- Airport Elevation : 74 ft
- IATA code : LRH


LFBH - La Rochelle Ile de Ré

CURRENT METAR :
  • 141100Z AUTO 21014KT 9999 FEW026 SCT031 BKN042 19/12 Q1011 TEMPO 24015G29KT

EXPIRED METARs :
  • 141030Z AUTO 23013KT 9999 BKN046 20/13 Q1011 TEMPO 24015G29KT
  • 141000Z AUTO 22012KT CAVOK 19/13 Q1011 NOSIG
  • 140930Z AUTO 22011KT 200V260 CAVOK 19/14 Q1011 NOSIG
  • 140900Z AUTO 23010KT 9999 FEW029 SCT058 19/15 Q1011 NOSIG
  • 140830Z AUTO 23011KT 200V260 9999 BKN027 OVC041 17/14 Q1011 NOSIG
  • 140800Z AUTO 22010KT 9999 SCT030 BKN037 BKN044 18/14 Q1011 NOSIG
  • 140730Z AUTO 22010KT 9999 SCT043 BKN049 18/14 Q1011 NOSIG
  • 140700Z AUTO 24008KT 200V270 9999 BKN043 18/13 Q1011 NOSIG
  • 140630Z AUTO 25009KT CAVOK 17/14 Q1011 NOSIG

TAF TAF LFBH
Valid from the 14 at 06:00 until the 15 at 06:00 UTC


140500Z 1406/1506 25008KT 9999 BKN035
PROB40
TEMPO 1413/1424 4500 -SHRA BKN020TCU
TEMPO 1412/1418 24015G29KT
ATIS : +33 5 46 00 13 92



MET'MAP, your aeronautical weather chart ! - Copyright ORBIFLY December 2007 - Disclaimer

ORBIFLY MET'MAP TEAM :

Programming & Development : Alexandra Zaïnal
Original concept : Baudouin d'Aumeries
Technical & hardware support : Manuel Goepfert
Assistance : Marc-Olivier Méhu




SOURCES & CREDITS :

   NOAA